sensor_id;sensor_type;location;lat;lon;timestamp;P1;durP1;ratioP1;P2;durP2;ratioP2
26989;SDS011;14537;47.788;11.858;2023-12-14T00:00:32;5.40;;;1.80;;
26989;SDS011;14537;47.788;11.858;2023-12-14T00:02:58;3.80;;;1.40;;
26989;SDS011;14537;47.788;11.858;2023-12-14T00:05:23;3.83;;;1.13;;
26989;SDS011;14537;47.788;11.858;2023-12-14T00:07:49;5.57;;;1.38;;
26989;SDS011;14537;47.788;11.858;2023-12-14T00:10:15;3.35;;;0.75;;
26989;SDS011;14537;47.788;11.858;2023-12-14T00:12:43;0.73;;;0.50;;
26989;SDS011;14537;47.788;11.858;2023-12-14T00:15:09;1.58;;;0.55;;
26989;SDS011;14537;47.788;11.858;2023-12-14T00:17:34;2.95;;;0.60;;
26989;SDS011;14537;47.788;11.858;2023-12-14T00:20:00;1.38;;;0.70;;
26989;SDS011;14537;47.788;11.858;2023-12-14T00:22:26;3.53;;;0.77;;
26989;SDS011;14537;47.788;11.858;2023-12-14T00:24:51;1.73;;;0.70;;
26989;SDS011;14537;47.788;11.858;2023-12-14T00:27:17;1.83;;;0.80;;
26989;SDS011;14537;47.788;11.858;2023-12-14T00:29:42;1.15;;;0.50;;
26989;SDS011;14537;47.788;11.858;2023-12-14T00:32:08;1.20;;;0.50;;
26989;SDS011;14537;47.788;11.858;2023-12-14T00:34:33;0.90;;;0.70;;
26989;SDS011;14537;47.788;11.858;2023-12-14T00:36:59;0.57;;;0.50;;
26989;SDS011;14537;47.788;11.858;2023-12-14T00:39:25;0.40;;;0.30;;
26989;SDS011;14537;47.788;11.858;2023-12-14T00:41:50;3.60;;;0.60;;
26989;SDS011;14537;47.788;11.858;2023-12-14T00:44:16;1.00;;;0.77;;
26989;SDS011;14537;47.788;11.858;2023-12-14T00:46:42;0.73;;;0.55;;
26989;SDS011;14537;47.788;11.858;2023-12-14T00:49:07;2.13;;;0.50;;
26989;SDS011;14537;47.788;11.858;2023-12-14T00:51:33;0.82;;;0.70;;
26989;SDS011;14537;47.788;11.858;2023-12-14T00:53:59;0.90;;;0.63;;
26989;SDS011;14537;47.788;11.858;2023-12-14T00:56:24;1.98;;;1.15;;
26989;SDS011;14537;47.788;11.858;2023-12-14T00:58:50;1.00;;;0.50;;
26989;SDS011;14537;47.788;11.858;2023-12-14T01:01:15;0.57;;;0.40;;
26989;SDS011;14537;47.788;11.858;2023-12-14T01:03:41;0.43;;;0.40;;
26989;SDS011;14537;47.788;11.858;2023-12-14T01:06:06;1.05;;;0.40;;
26989;SDS011;14537;47.788;11.858;2023-12-14T01:08:32;0.52;;;0.28;;
26989;SDS011;14537;47.788;11.858;2023-12-14T01:10:58;0.60;;;0.30;;
26989;SDS011;14537;47.788;11.858;2023-12-14T01:13:23;0.50;;;0.40;;
26989;SDS011;14537;47.788;11.858;2023-12-14T01:15:49;1.30;;;0.30;;
26989;SDS011;14537;47.788;11.858;2023-12-14T01:18:15;0.38;;;0.28;;
26989;SDS011;14537;47.788;11.858;2023-12-14T01:20:42;0.55;;;0.45;;
26989;SDS011;14537;47.788;11.858;2023-12-14T01:23:07;0.25;;;0.25;;
26989;SDS011;14537;47.788;11.858;2023-12-14T01:25:34;0.63;;;0.28;;
26989;SDS011;14537;47.788;11.858;2023-12-14T01:28:00;1.35;;;0.47;;
26989;SDS011;14537;47.788;11.858;2023-12-14T01:30:26;0.43;;;0.40;;
26989;SDS011;14537;47.788;11.858;2023-12-14T01:32:51;0.85;;;0.47;;
26989;SDS011;14537;47.788;11.858;2023-12-14T01:35:17;0.40;;;0.22;;
26989;SDS011;14537;47.788;11.858;2023-12-14T01:37:42;0.40;;;0.32;;
26989;SDS011;14537;47.788;11.858;2023-12-14T01:40:08;1.08;;;0.55;;
26989;SDS011;14537;47.788;11.858;2023-12-14T01:42:34;0.30;;;0.30;;
26989;SDS011;14537;47.788;11.858;2023-12-14T01:44:59;0.47;;;0.30;;
26989;SDS011;14537;47.788;11.858;2023-12-14T01:47:25;0.32;;;0.30;;
26989;SDS011;14537;47.788;11.858;2023-12-14T01:49:50;0.95;;;0.40;;
26989;SDS011;14537;47.788;11.858;2023-12-14T01:52:16;3.10;;;0.52;;
26989;SDS011;14537;47.788;11.858;2023-12-14T01:54:42;0.85;;;0.68;;
26989;SDS011;14537;47.788;11.858;2023-12-14T01:57:08;0.65;;;0.32;;
26989;SDS011;14537;47.788;11.858;2023-12-14T01:59:34;2.22;;;0.35;;
26989;SDS011;14537;47.788;11.858;2023-12-14T02:01:59;0.55;;;0.30;;
26989;SDS011;14537;47.788;11.858;2023-12-14T02:04:26;2.20;;;0.28;;
26989;SDS011;14537;47.788;11.858;2023-12-14T02:06:52;0.80;;;0.28;;
26989;SDS011;14537;47.788;11.858;2023-12-14T02:09:17;0.77;;;0.35;;
26989;SDS011;14537;47.788;11.858;2023-12-14T02:11:43;0.40;;;0.30;;
26989;SDS011;14537;47.788;11.858;2023-12-14T02:14:09;0.52;;;0.40;;
26989;SDS011;14537;47.788;11.858;2023-12-14T02:16:35;0.60;;;0.40;;
26989;SDS011;14537;47.788;11.858;2023-12-14T02:19:03;0.30;;;0.30;;
26989;SDS011;14537;47.788;11.858;2023-12-14T02:21:29;0.20;;;0.20;;
26989;SDS011;14537;47.788;11.858;2023-12-14T02:23:55;0.98;;;0.30;;
26989;SDS011;14537;47.788;11.858;2023-12-14T02:26:21;0.50;;;0.15;;
26989;SDS011;14537;47.788;11.858;2023-12-14T02:28:46;0.65;;;0.30;;
26989;SDS011;14537;47.788;11.858;2023-12-14T02:31:12;4.82;;;0.40;;
26989;SDS011;14537;47.788;11.858;2023-12-14T02:33:37;0.20;;;0.20;;
26989;SDS011;14537;47.788;11.858;2023-12-14T02:36:03;0.20;;;0.20;;
26989;SDS011;14537;47.788;11.858;2023-12-14T02:38:29;3.72;;;0.22;;
26989;SDS011;14537;47.788;11.858;2023-12-14T02:40:55;0.77;;;0.32;;
26989;SDS011;14537;47.788;11.858;2023-12-14T02:43:20;0.20;;;0.20;;
26989;SDS011;14537;47.788;11.858;2023-12-14T02:45:48;0.10;;;0.10;;
26989;SDS011;14537;47.788;11.858;2023-12-14T02:48:14;0.30;;;0.30;;
26989;SDS011;14537;47.788;11.858;2023-12-14T02:50:40;0.47;;;0.30;;
26989;SDS011;14537;47.788;11.858;2023-12-14T02:53:06;0.52;;;0.20;;
26989;SDS011;14537;47.788;11.858;2023-12-14T02:55:31;3.35;;;0.30;;
26989;SDS011;14537;47.788;11.858;2023-12-14T02:57:57;1.25;;;0.47;;
26989;SDS011;14537;47.788;11.858;2023-12-14T03:00:22;0.30;;;0.30;;
26989;SDS011;14537;47.788;11.858;2023-12-14T03:02:48;0.28;;;0.28;;
26989;SDS011;14537;47.788;11.858;2023-12-14T03:05:14;0.82;;;0.25;;
26989;SDS011;14537;47.788;11.858;2023-12-14T03:07:39;0.90;;;0.30;;
26989;SDS011;14537;47.788;11.858;2023-12-14T03:10:06;0.30;;;0.20;;
26989;SDS011;14537;47.788;11.858;2023-12-14T03:12:32;0.43;;;0.40;;
26989;SDS011;14537;47.788;11.858;2023-12-14T03:14:57;1.27;;;0.57;;
26989;SDS011;14537;47.788;11.858;2023-12-14T03:17:23;0.28;;;0.28;;
26989;SDS011;14537;47.788;11.858;2023-12-14T03:19:49;1.00;;;0.40;;
26989;SDS011;14537;47.788;11.858;2023-12-14T03:22:14;1.40;;;0.32;;
26989;SDS011;14537;47.788;11.858;2023-12-14T03:24:40;0.88;;;0.35;;
26989;SDS011;14537;47.788;11.858;2023-12-14T03:27:07;0.25;;;0.20;;
26989;SDS011;14537;47.788;11.858;2023-12-14T03:29:32;0.32;;;0.30;;
26989;SDS011;14537;47.788;11.858;2023-12-14T03:31:58;0.57;;;0.38;;
26989;SDS011;14537;47.788;11.858;2023-12-14T03:34:24;0.40;;;0.40;;
26989;SDS011;14537;47.788;11.858;2023-12-14T03:36:50;1.20;;;0.40;;
26989;SDS011;14537;47.788;11.858;2023-12-14T03:39:16;1.13;;;0.30;;
26989;SDS011;14537;47.788;11.858;2023-12-14T03:41:42;0.77;;;0.77;;
26989;SDS011;14537;47.788;11.858;2023-12-14T03:44:08;0.45;;;0.40;;
26989;SDS011;14537;47.788;11.858;2023-12-14T03:46:33;0.45;;;0.45;;
26989;SDS011;14537;47.788;11.858;2023-12-14T03:48:59;0.93;;;0.70;;
26989;SDS011;14537;47.788;11.858;2023-12-14T03:51:25;2.72;;;0.73;;
26989;SDS011;14537;47.788;11.858;2023-12-14T03:53:51;1.33;;;0.88;;
26989;SDS011;14537;47.788;11.858;2023-12-14T03:56:17;1.38;;;0.77;;
26989;SDS011;14537;47.788;11.858;2023-12-14T03:58:42;1.60;;;0.80;;
26989;SDS011;14537;47.788;11.858;2023-12-14T04:01:14;3.22;;;1.30;;
26989;SDS011;14537;47.788;11.858;2023-12-14T04:03:44;2.67;;;0.70;;
26989;SDS011;14537;47.788;11.858;2023-12-14T04:06:10;2.15;;;0.77;;
26989;SDS011;14537;47.788;11.858;2023-12-14T04:08:36;1.55;;;0.70;;
26989;SDS011;14537;47.788;11.858;2023-12-14T04:11:02;2.65;;;1.13;;
26989;SDS011;14537;47.788;11.858;2023-12-14T04:13:28;2.83;;;1.20;;
26989;SDS011;14537;47.788;11.858;2023-12-14T04:15:54;2.25;;;0.85;;
26989;SDS011;14537;47.788;11.858;2023-12-14T04:18:19;5.32;;;1.42;;
26989;SDS011;14537;47.788;11.858;2023-12-14T04:20:45;2.55;;;0.93;;
26989;SDS011;14537;47.788;11.858;2023-12-14T04:23:10;4.18;;;0.70;;
26989;SDS011;14537;47.788;11.858;2023-12-14T04:25:36;5.47;;;1.38;;
26989;SDS011;14537;47.788;11.858;2023-12-14T04:28:02;5.35;;;1.92;;
26989;SDS011;14537;47.788;11.858;2023-12-14T04:30:27;2.75;;;0.95;;
26989;SDS011;14537;47.788;11.858;2023-12-14T04:32:53;1.98;;;0.60;;
26989;SDS011;14537;47.788;11.858;2023-12-14T04:35:18;1.50;;;0.80;;
26989;SDS011;14537;47.788;11.858;2023-12-14T04:37:47;1.55;;;0.80;;
26989;SDS011;14537;47.788;11.858;2023-12-14T04:40:12;0.32;;;0.32;;
26989;SDS011;14537;47.788;11.858;2023-12-14T04:42:38;2.10;;;0.60;;
26989;SDS011;14537;47.788;11.858;2023-12-14T04:45:04;1.00;;;0.50;;
26989;SDS011;14537;47.788;11.858;2023-12-14T04:47:30;2.17;;;0.93;;
26989;SDS011;14537;47.788;11.858;2023-12-14T04:49:55;0.85;;;0.55;;
26989;SDS011;14537;47.788;11.858;2023-12-14T04:52:21;1.10;;;0.70;;
26989;SDS011;14537;47.788;11.858;2023-12-14T04:54:46;1.23;;;0.68;;
26989;SDS011;14537;47.788;11.858;2023-12-14T04:57:12;1.15;;;0.88;;
26989;SDS011;14537;47.788;11.858;2023-12-14T04:59:40;1.42;;;0.85;;
26989;SDS011;14537;47.788;11.858;2023-12-14T05:02:06;0.98;;;0.70;;
26989;SDS011;14537;47.788;11.858;2023-12-14T05:04:32;2.17;;;1.10;;
26989;SDS011;14537;47.788;11.858;2023-12-14T05:06:58;1.98;;;0.98;;
26989;SDS011;14537;47.788;11.858;2023-12-14T05:09:23;0.63;;;0.63;;
26989;SDS011;14537;47.788;11.858;2023-12-14T05:11:49;0.65;;;0.65;;
26989;SDS011;14537;47.788;11.858;2023-12-14T05:14:14;0.95;;;0.85;;
26989;SDS011;14537;47.788;11.858;2023-12-14T05:16:40;0.60;;;0.60;;
26989;SDS011;14537;47.788;11.858;2023-12-14T05:19:05;1.05;;;0.70;;
26989;SDS011;14537;47.788;11.858;2023-12-14T05:21:31;0.57;;;0.50;;
26989;SDS011;14537;47.788;11.858;2023-12-14T05:23:57;0.98;;;0.47;;
26989;SDS011;14537;47.788;11.858;2023-12-14T05:26:23;0.50;;;0.50;;
26989;SDS011;14537;47.788;11.858;2023-12-14T05:28:48;0.43;;;0.43;;
26989;SDS011;14537;47.788;11.858;2023-12-14T05:31:14;1.80;;;0.60;;
26989;SDS011;14537;47.788;11.858;2023-12-14T05:33:40;0.98;;;0.50;;
26989;SDS011;14537;47.788;11.858;2023-12-14T05:36:06;0.38;;;0.38;;
26989;SDS011;14537;47.788;11.858;2023-12-14T05:38:35;0.70;;;0.50;;
26989;SDS011;14537;47.788;11.858;2023-12-14T05:41:04;1.13;;;0.50;;
26989;SDS011;14537;47.788;11.858;2023-12-14T05:43:30;0.40;;;0.40;;
26989;SDS011;14537;47.788;11.858;2023-12-14T05:45:56;3.00;;;0.43;;
26989;SDS011;14537;47.788;11.858;2023-12-14T05:48:21;0.47;;;0.40;;
26989;SDS011;14537;47.788;11.858;2023-12-14T05:50:47;1.85;;;0.98;;
26989;SDS011;14537;47.788;11.858;2023-12-14T05:53:13;0.82;;;0.60;;
26989;SDS011;14537;47.788;11.858;2023-12-14T05:55:38;0.50;;;0.40;;
26989;SDS011;14537;47.788;11.858;2023-12-14T05:58:06;1.50;;;0.40;;
26989;SDS011;14537;47.788;11.858;2023-12-14T06:00:32;0.55;;;0.28;;
26989;SDS011;14537;47.788;11.858;2023-12-14T06:02:59;0.70;;;0.40;;
26989;SDS011;14537;47.788;11.858;2023-12-14T06:05:25;0.40;;;0.40;;
26989;SDS011;14537;47.788;11.858;2023-12-14T06:07:51;0.38;;;0.22;;
26989;SDS011;14537;47.788;11.858;2023-12-14T06:10:16;0.25;;;0.25;;
26989;SDS011;14537;47.788;11.858;2023-12-14T06:12:42;0.20;;;0.20;;
26989;SDS011;14537;47.788;11.858;2023-12-14T06:15:08;0.30;;;0.30;;
26989;SDS011;14537;47.788;11.858;2023-12-14T06:17:34;0.30;;;0.30;;
26989;SDS011;14537;47.788;11.858;2023-12-14T06:20:02;0.52;;;0.32;;
26989;SDS011;14537;47.788;11.858;2023-12-14T06:22:29;1.30;;;0.28;;
26989;SDS011;14537;47.788;11.858;2023-12-14T06:24:54;0.30;;;0.30;;
26989;SDS011;14537;47.788;11.858;2023-12-14T06:27:20;0.15;;;0.15;;
26989;SDS011;14537;47.788;11.858;2023-12-14T06:29:51;0.10;;;0.10;;
26989;SDS011;14537;47.788;11.858;2023-12-14T06:32:17;0.30;;;0.30;;
26989;SDS011;14537;47.788;11.858;2023-12-14T06:34:42;0.10;;;0.10;;
26989;SDS011;14537;47.788;11.858;2023-12-14T06:37:08;0.20;;;0.20;;
26989;SDS011;14537;47.788;11.858;2023-12-14T06:39:34;0.10;;;0.10;;
26989;SDS011;14537;47.788;11.858;2023-12-14T06:42:00;0.20;;;0.20;;
26989;SDS011;14537;47.788;11.858;2023-12-14T06:44:26;2.80;;;0.25;;
26989;SDS011;14537;47.788;11.858;2023-12-14T06:46:52;0.30;;;0.30;;
26989;SDS011;14537;47.788;11.858;2023-12-14T06:49:19;0.50;;;0.20;;
26989;SDS011;14537;47.788;11.858;2023-12-14T06:51:45;0.20;;;0.20;;
26989;SDS011;14537;47.788;11.858;2023-12-14T06:54:11;4.85;;;1.35;;
26989;SDS011;14537;47.788;11.858;2023-12-14T06:56:36;1.52;;;0.43;;
26989;SDS011;14537;47.788;11.858;2023-12-14T06:59:02;0.93;;;0.50;;
26989;SDS011;14537;47.788;11.858;2023-12-14T07:01:28;1.75;;;0.40;;
26989;SDS011;14537;47.788;11.858;2023-12-14T07:03:54;2.83;;;0.70;;
26989;SDS011;14537;47.788;11.858;2023-12-14T07:06:19;2.55;;;0.77;;
26989;SDS011;14537;47.788;11.858;2023-12-14T07:08:46;2.17;;;0.73;;
26989;SDS011;14537;47.788;11.858;2023-12-14T07:11:12;3.65;;;0.82;;
26989;SDS011;14537;47.788;11.858;2023-12-14T07:13:38;1.02;;;0.60;;
26989;SDS011;14537;47.788;11.858;2023-12-14T07:16:08;0.57;;;0.25;;
26989;SDS011;14537;47.788;11.858;2023-12-14T07:18:35;1.42;;;0.57;;
26989;SDS011;14537;47.788;11.858;2023-12-14T07:21:04;1.25;;;0.80;;
26989;SDS011;14537;47.788;11.858;2023-12-14T07:23:30;0.90;;;0.60;;
26989;SDS011;14537;47.788;11.858;2023-12-14T07:25:56;1.38;;;0.73;;
26989;SDS011;14537;47.788;11.858;2023-12-14T07:28:22;2.28;;;0.63;;
26989;SDS011;14537;47.788;11.858;2023-12-14T07:30:48;1.40;;;0.80;;
26989;SDS011;14537;47.788;11.858;2023-12-14T07:33:14;0.80;;;0.80;;
26989;SDS011;14537;47.788;11.858;2023-12-14T07:35:40;3.92;;;0.85;;
26989;SDS011;14537;47.788;11.858;2023-12-14T07:38:06;1.02;;;0.80;;
26989;SDS011;14537;47.788;11.858;2023-12-14T07:40:31;0.77;;;0.65;;
26989;SDS011;14537;47.788;11.858;2023-12-14T07:42:57;1.40;;;1.10;;
26989;SDS011;14537;47.788;11.858;2023-12-14T07:45:23;3.03;;;1.13;;
26989;SDS011;14537;47.788;11.858;2023-12-14T07:47:48;2.80;;;1.50;;
26989;SDS011;14537;47.788;11.858;2023-12-14T07:50:14;2.95;;;1.45;;
26989;SDS011;14537;47.788;11.858;2023-12-14T07:52:40;1.60;;;1.10;;
26989;SDS011;14537;47.788;11.858;2023-12-14T07:55:06;1.27;;;1.10;;
26989;SDS011;14537;47.788;11.858;2023-12-14T07:57:32;4.55;;;2.35;;
26989;SDS011;14537;47.788;11.858;2023-12-14T07:59:58;1.92;;;1.33;;
26989;SDS011;14537;47.788;11.858;2023-12-14T08:02:23;3.00;;;1.33;;
26989;SDS011;14537;47.788;11.858;2023-12-14T08:04:49;5.25;;;1.50;;
26989;SDS011;14537;47.788;11.858;2023-12-14T08:07:14;6.45;;;1.70;;
26989;SDS011;14537;47.788;11.858;2023-12-14T08:09:40;4.88;;;1.67;;
26989;SDS011;14537;47.788;11.858;2023-12-14T08:12:06;2.83;;;1.27;;
26989;SDS011;14537;47.788;11.858;2023-12-14T08:14:32;4.75;;;1.60;;
26989;SDS011;14537;47.788;11.858;2023-12-14T08:16:59;3.00;;;1.63;;
26989;SDS011;14537;47.788;11.858;2023-12-14T08:19:25;2.60;;;1.23;;
26989;SDS011;14537;47.788;11.858;2023-12-14T08:21:50;4.68;;;1.05;;
26989;SDS011;14537;47.788;11.858;2023-12-14T08:24:16;2.05;;;1.10;;
26989;SDS011;14537;47.788;11.858;2023-12-14T08:26:42;2.17;;;1.30;;
26989;SDS011;14537;47.788;11.858;2023-12-14T08:29:07;1.75;;;1.15;;
26989;SDS011;14537;47.788;11.858;2023-12-14T08:31:34;1.52;;;0.90;;
26989;SDS011;14537;47.788;11.858;2023-12-14T08:33:59;3.03;;;1.30;;
26989;SDS011;14537;47.788;11.858;2023-12-14T08:36:25;2.50;;;1.15;;
26989;SDS011;14537;47.788;11.858;2023-12-14T08:38:51;0.95;;;0.70;;
26989;SDS011;14537;47.788;11.858;2023-12-14T08:41:17;4.45;;;1.20;;
26989;SDS011;14537;47.788;11.858;2023-12-14T08:43:42;4.03;;;1.08;;
26989;SDS011;14537;47.788;11.858;2023-12-14T08:46:08;2.05;;;1.27;;
26989;SDS011;14537;47.788;11.858;2023-12-14T08:48:35;3.88;;;1.38;;
26989;SDS011;14537;47.788;11.858;2023-12-14T08:51:00;4.28;;;2.05;;
26989;SDS011;14537;47.788;11.858;2023-12-14T08:53:26;5.13;;;1.50;;
26989;SDS011;14537;47.788;11.858;2023-12-14T08:55:53;3.50;;;1.85;;
26989;SDS011;14537;47.788;11.858;2023-12-14T08:58:19;1.92;;;0.85;;
26989;SDS011;14537;47.788;11.858;2023-12-14T09:00:44;5.20;;;0.85;;
26989;SDS011;14537;47.788;11.858;2023-12-14T09:03:10;1.33;;;0.90;;
26989;SDS011;14537;47.788;11.858;2023-12-14T09:05:36;1.70;;;0.93;;
26989;SDS011;14537;47.788;11.858;2023-12-14T09:08:02;1.23;;;0.90;;
26989;SDS011;14537;47.788;11.858;2023-12-14T09:10:28;7.60;;;1.10;;
26989;SDS011;14537;47.788;11.858;2023-12-14T09:12:53;1.73;;;1.20;;
26989;SDS011;14537;47.788;11.858;2023-12-14T09:15:19;2.58;;;0.95;;
26989;SDS011;14537;47.788;11.858;2023-12-14T09:17:45;1.08;;;0.90;;
26989;SDS011;14537;47.788;11.858;2023-12-14T09:20:10;1.83;;;1.17;;
26989;SDS011;14537;47.788;11.858;2023-12-14T09:22:36;2.10;;;1.10;;
26989;SDS011;14537;47.788;11.858;2023-12-14T09:25:02;1.55;;;1.08;;
26989;SDS011;14537;47.788;11.858;2023-12-14T09:27:28;2.92;;;1.48;;
26989;SDS011;14537;47.788;11.858;2023-12-14T09:29:54;4.97;;;1.90;;
26989;SDS011;14537;47.788;11.858;2023-12-14T09:32:21;3.90;;;1.40;;
26989;SDS011;14537;47.788;11.858;2023-12-14T09:34:46;3.85;;;1.38;;
26989;SDS011;14537;47.788;11.858;2023-12-14T09:37:12;5.25;;;1.45;;
26989;SDS011;14537;47.788;11.858;2023-12-14T09:39:39;2.25;;;0.98;;
26989;SDS011;14537;47.788;11.858;2023-12-14T09:42:05;2.67;;;1.00;;
26989;SDS011;14537;47.788;11.858;2023-12-14T09:44:33;2.60;;;1.27;;
26989;SDS011;14537;47.788;11.858;2023-12-14T09:47:00;5.45;;;1.40;;
26989;SDS011;14537;47.788;11.858;2023-12-14T09:49:27;3.38;;;1.17;;
26989;SDS011;14537;47.788;11.858;2023-12-14T09:51:55;3.38;;;1.13;;
26989;SDS011;14537;47.788;11.858;2023-12-14T09:54:21;2.20;;;1.00;;
26989;SDS011;14537;47.788;11.858;2023-12-14T09:56:48;3.80;;;1.10;;
26989;SDS011;14537;47.788;11.858;2023-12-14T09:59:14;1.67;;;0.63;;
26989;SDS011;14537;47.788;11.858;2023-12-14T10:01:40;5.90;;;1.00;;
26989;SDS011;14537;47.788;11.858;2023-12-14T10:04:09;1.23;;;0.93;;
26989;SDS011;14537;47.788;11.858;2023-12-14T10:06:40;1.88;;;1.00;;
26989;SDS011;14537;47.788;11.858;2023-12-14T10:09:07;1.63;;;0.85;;
26989;SDS011;14537;47.788;11.858;2023-12-14T10:11:37;1.88;;;1.10;;
26989;SDS011;14537;47.788;11.858;2023-12-14T10:14:17;1.20;;;0.77;;
26989;SDS011;14537;47.788;11.858;2023-12-14T10:16:47;2.05;;;1.17;;
26989;SDS011;14537;47.788;11.858;2023-12-14T10:19:14;2.33;;;1.10;;
26989;SDS011;14537;47.788;11.858;2023-12-14T10:21:41;1.65;;;1.25;;
26989;SDS011;14537;47.788;11.858;2023-12-14T10:24:07;2.38;;;1.10;;
26989;SDS011;14537;47.788;11.858;2023-12-14T10:26:33;1.48;;;0.70;;
26989;SDS011;14537;47.788;11.858;2023-12-14T10:28:58;1.95;;;0.90;;
26989;SDS011;14537;47.788;11.858;2023-12-14T10:31:24;1.67;;;0.57;;
26989;SDS011;14537;47.788;11.858;2023-12-14T10:33:51;1.23;;;0.68;;
26989;SDS011;14537;47.788;11.858;2023-12-14T10:36:19;0.95;;;0.63;;
26989;SDS011;14537;47.788;11.858;2023-12-14T10:38:52;0.77;;;0.60;;
26989;SDS011;14537;47.788;11.858;2023-12-14T10:41:18;0.70;;;0.60;;
26989;SDS011;14537;47.788;11.858;2023-12-14T10:43:47;2.97;;;1.60;;
26989;SDS011;14537;47.788;11.858;2023-12-14T10:46:13;0.45;;;0.40;;
26989;SDS011;14537;47.788;11.858;2023-12-14T10:48:40;0.52;;;0.50;;
26989;SDS011;14537;47.788;11.858;2023-12-14T10:51:09;1.10;;;0.47;;
26989;SDS011;14537;47.788;11.858;2023-12-14T10:53:36;0.50;;;0.50;;
26989;SDS011;14537;47.788;11.858;2023-12-14T10:56:03;0.73;;;0.63;;
26989;SDS011;14537;47.788;11.858;2023-12-14T10:58:44;0.50;;;0.40;;
26989;SDS011;14537;47.788;11.858;2023-12-14T11:01:16;1.50;;;0.80;;
26989;SDS011;14537;47.788;11.858;2023-12-14T11:03:43;0.30;;;0.30;;
26989;SDS011;14537;47.788;11.858;2023-12-14T11:08:52;0.30;;;0.30;;
26989;SDS011;14537;47.788;11.858;2023-12-14T11:11:17;0.15;;;0.10;;
26989;SDS011;14537;47.788;11.858;2023-12-14T11:13:47;0.80;;;0.60;;
26989;SDS011;14537;47.788;11.858;2023-12-14T11:16:19;0.93;;;0.50;;
26989;SDS011;14537;47.788;11.858;2023-12-14T11:19:00;0.93;;;0.47;;
26989;SDS011;14537;47.788;11.858;2023-12-14T11:22:33;0.85;;;0.70;;
26989;SDS011;14537;47.788;11.858;2023-12-14T11:24:32;0.63;;;0.63;;
26989;SDS011;14537;47.788;11.858;2023-12-14T11:27:04;1.58;;;0.82;;
26989;SDS011;14537;47.788;11.858;2023-12-14T11:29:31;1.35;;;0.90;;
26989;SDS011;14537;47.788;11.858;2023-12-14T11:31:57;1.42;;;0.75;;
26989;SDS011;14537;47.788;11.858;2023-12-14T11:34:26;0.43;;;0.43;;
26989;SDS011;14537;47.788;11.858;2023-12-14T11:36:52;0.88;;;0.70;;
26989;SDS011;14537;47.788;11.858;2023-12-14T11:39:19;0.98;;;0.47;;
26989;SDS011;14537;47.788;11.858;2023-12-14T11:42:02;1.95;;;1.05;;
26989;SDS011;14537;47.788;11.858;2023-12-14T11:44:28;1.45;;;0.65;;
26989;SDS011;14537;47.788;11.858;2023-12-14T11:46:55;0.55;;;0.50;;
26989;SDS011;14537;47.788;11.858;2023-12-14T11:49:23;0.82;;;0.70;;
26989;SDS011;14537;47.788;11.858;2023-12-14T11:51:51;0.68;;;0.68;;
26989;SDS011;14537;47.788;11.858;2023-12-14T11:54:18;0.70;;;0.70;;
26989;SDS011;14537;47.788;11.858;2023-12-14T11:56:48;1.08;;;0.82;;
26989;SDS011;14537;47.788;11.858;2023-12-14T11:59:15;2.58;;;0.80;;
26989;SDS011;14537;47.788;11.858;2023-12-14T12:01:57;0.65;;;0.50;;
26989;SDS011;14537;47.788;11.858;2023-12-14T12:04:24;1.42;;;0.85;;
26989;SDS011;14537;47.788;11.858;2023-12-14T12:06:58;1.85;;;0.82;;
26989;SDS011;14537;47.788;11.858;2023-12-14T12:09:35;1.45;;;1.00;;
26989;SDS011;14537;47.788;11.858;2023-12-14T12:12:08;1.50;;;1.17;;
26989;SDS011;14537;47.788;11.858;2023-12-14T12:14:35;1.25;;;0.70;;
26989;SDS011;14537;47.788;11.858;2023-12-14T12:17:01;0.65;;;0.57;;
26989;SDS011;14537;47.788;11.858;2023-12-14T12:19:29;0.93;;;0.57;;
26989;SDS011;14537;47.788;11.858;2023-12-14T12:21:56;3.25;;;0.55;;
26989;SDS011;14537;47.788;11.858;2023-12-14T12:24:21;1.90;;;0.90;;
26989;SDS011;14537;47.788;11.858;2023-12-14T12:26:47;1.98;;;1.10;;
26989;SDS011;14537;47.788;11.858;2023-12-14T12:29:12;1.55;;;0.93;;
26989;SDS011;14537;47.788;11.858;2023-12-14T12:31:38;1.00;;;0.80;;
26989;SDS011;14537;47.788;11.858;2023-12-14T12:34:05;1.15;;;1.02;;
26989;SDS011;14537;47.788;11.858;2023-12-14T12:36:30;1.35;;;1.20;;
26989;SDS011;14537;47.788;11.858;2023-12-14T12:38:56;2.97;;;1.10;;
26989;SDS011;14537;47.788;11.858;2023-12-14T12:41:22;2.28;;;1.10;;
26989;SDS011;14537;47.788;11.858;2023-12-14T12:43:47;2.42;;;1.60;;
26989;SDS011;14537;47.788;11.858;2023-12-14T12:46:13;1.75;;;1.10;;
26989;SDS011;14537;47.788;11.858;2023-12-14T12:48:38;3.35;;;1.38;;
26989;SDS011;14537;47.788;11.858;2023-12-14T12:51:04;1.67;;;1.30;;
26989;SDS011;14537;47.788;11.858;2023-12-14T12:53:30;1.35;;;1.00;;
26989;SDS011;14537;47.788;11.858;2023-12-14T12:55:57;0.77;;;0.70;;
26989;SDS011;14537;47.788;11.858;2023-12-14T12:58:23;3.00;;;1.20;;
26989;SDS011;14537;47.788;11.858;2023-12-14T13:00:48;2.15;;;1.10;;
26989;SDS011;14537;47.788;11.858;2023-12-14T13:03:14;3.13;;;1.80;;
26989;SDS011;14537;47.788;11.858;2023-12-14T13:05:39;2.72;;;0.98;;
26989;SDS011;14537;47.788;11.858;2023-12-14T13:08:05;1.58;;;0.90;;
26989;SDS011;14537;47.788;11.858;2023-12-14T13:10:31;1.50;;;1.02;;
26989;SDS011;14537;47.788;11.858;2023-12-14T13:12:57;1.33;;;0.85;;
26989;SDS011;14537;47.788;11.858;2023-12-14T13:15:23;1.65;;;0.85;;
26989;SDS011;14537;47.788;11.858;2023-12-14T13:17:50;1.55;;;0.90;;
26989;SDS011;14537;47.788;11.858;2023-12-14T13:20:16;1.67;;;1.00;;
26989;SDS011;14537;47.788;11.858;2023-12-14T13:22:43;1.38;;;0.65;;
26989;SDS011;14537;47.788;11.858;2023-12-14T13:25:09;0.90;;;0.70;;
26989;SDS011;14537;47.788;11.858;2023-12-14T13:27:34;2.05;;;1.00;;
26989;SDS011;14537;47.788;11.858;2023-12-14T13:30:01;2.70;;;1.02;;
26989;SDS011;14537;47.788;11.858;2023-12-14T13:32:27;2.00;;;0.95;;
26989;SDS011;14537;47.788;11.858;2023-12-14T13:34:53;4.13;;;1.50;;
26989;SDS011;14537;47.788;11.858;2023-12-14T13:37:19;1.48;;;0.82;;
26989;SDS011;14537;47.788;11.858;2023-12-14T13:39:44;2.03;;;1.23;;
26989;SDS011;14537;47.788;11.858;2023-12-14T13:42:10;2.60;;;0.90;;
26989;SDS011;14537;47.788;11.858;2023-12-14T13:44:35;2.67;;;1.30;;
26989;SDS011;14537;47.788;11.858;2023-12-14T13:47:02;1.42;;;1.08;;
26989;SDS011;14537;47.788;11.858;2023-12-14T13:49:28;0.98;;;0.77;;
26989;SDS011;14537;47.788;11.858;2023-12-14T13:51:54;1.92;;;1.23;;
26989;SDS011;14537;47.788;11.858;2023-12-14T13:54:19;1.83;;;1.40;;
26989;SDS011;14537;47.788;11.858;2023-12-14T13:56:45;3.72;;;1.50;;
26989;SDS011;14537;47.788;11.858;2023-12-14T13:59:11;1.45;;;1.10;;
26989;SDS011;14537;47.788;11.858;2023-12-14T14:01:36;1.98;;;1.48;;
26989;SDS011;14537;47.788;11.858;2023-12-14T14:04:03;2.55;;;1.23;;
26989;SDS011;14537;47.788;11.858;2023-12-14T14:06:28;1.80;;;1.17;;
26989;SDS011;14537;47.788;11.858;2023-12-14T14:08:54;2.42;;;1.40;;
26989;SDS011;14537;47.788;11.858;2023-12-14T14:11:20;3.22;;;1.40;;
26989;SDS011;14537;47.788;11.858;2023-12-14T14:13:47;1.00;;;0.90;;
26989;SDS011;14537;47.788;11.858;2023-12-14T14:16:13;1.05;;;0.80;;
26989;SDS011;14537;47.788;11.858;2023-12-14T14:18:38;2.13;;;1.35;;
26989;SDS011;14537;47.788;11.858;2023-12-14T14:21:04;1.58;;;1.30;;
26989;SDS011;14537;47.788;11.858;2023-12-14T14:23:33;2.10;;;1.30;;
26989;SDS011;14537;47.788;11.858;2023-12-14T14:25:59;2.45;;;1.83;;
26989;SDS011;14537;47.788;11.858;2023-12-14T14:28:25;3.60;;;1.83;;
26989;SDS011;14537;47.788;11.858;2023-12-14T14:30:51;2.30;;;1.42;;